Time;durP1;ratioP1;P1;durP2;ratioP2;P2;SDS_P1;SDS_P2;PMS_P1;PMS_P2;Temp;Humidity;BMP_temperature;BMP_pressure;BME280_temperature;BME280_humidity;BME280_pressure;Samples;Min_cycle;Max_cycle;Signal;HPM_P1;HPM_P2
2022/06/25 00:01:07;;;;;;;2.05;1.10;;;;;;;15.38;100.00;95616.75;5037402;28;24535;-73
2022/06/25 00:03:33;;;;;;;1.33;0.83;;;;;;;15.35;100.00;95617.88;5036534;28;24528;-73
2022/06/25 00:06:00;;;;;;;2.58;1.10;;;;;;;15.27;100.00;95614.22;5037753;28;24440;-73
2022/06/25 00:08:26;;;;;;;1.15;0.80;;;;;;;15.20;100.00;95613.91;5034745;28;24489;-74
2022/06/25 00:10:54;;;;;;;1.10;1.00;;;;;;;15.20;100.00;95616.50;5043595;28;24439;-73
2022/06/25 00:13:20;;;;;;;1.63;0.95;;;;;;;15.25;100.00;95620.41;5034708;28;24459;-74
2022/06/25 00:15:46;;;;;;;1.42;0.93;;;;;;;15.23;100.00;95626.69;5042363;28;24809;-73
2022/06/25 00:18:14;;;;;;;1.27;0.82;;;;;;;15.18;100.00;95624.47;5033648;28;24443;-73
2022/06/25 00:20:41;;;;;;;1.58;1.00;;;;;;;15.21;100.00;95632.06;5038765;28;24494;-73
2022/06/25 00:23:07;;;;;;;1.35;0.95;;;;;;;15.29;100.00;95630.59;5042689;28;24831;-73
2022/06/25 00:25:34;;;;;;;5.20;1.10;;;;;;;15.33;100.00;95629.38;5037601;28;24440;-73
2022/06/25 00:28:02;;;;;;;1.33;0.93;;;;;;;15.25;100.00;95630.84;5039277;28;24443;-73
2022/06/25 00:30:28;;;;;;;3.20;1.02;;;;;;;15.30;100.00;95634.84;5039227;28;24447;-73
2022/06/25 00:32:55;;;;;;;1.80;1.00;;;;;;;15.29;100.00;95630.59;5035141;28;24546;-74
2022/06/25 00:35:22;;;;;;;1.00;0.90;;;;;;;15.25;100.00;95625.63;5034677;28;24439;-74
2022/06/25 00:37:49;;;;;;;1.97;0.93;;;;;;;15.29;100.00;95633.19;5044275;28;24439;-74
2022/06/25 00:40:15;;;;;;;1.98;1.10;;;;;;;15.27;100.00;95640.31;5038380;28;24489;-73
2022/06/25 00:42:42;;;;;;;2.10;0.90;;;;;;;15.23;100.00;95637.94;5033139;28;24566;-73
2022/06/25 00:45:11;;;;;;;1.60;0.95;;;;;;;15.09;100.00;95635.69;5040587;28;24507;-74
2022/06/25 00:47:38;;;;;;;1.43;1.10;;;;;;;15.12;100.00;95637.19;5042326;28;24534;-73
2022/06/25 00:50:05;;;;;;;2.63;1.10;;;;;;;15.05;100.00;95638.66;5030213;28;24451;-73
2022/06/25 00:52:34;;;;;;;1.02;0.70;;;;;;;14.92;100.00;95637.06;5040817;28;24451;-74
2022/06/25 00:55:06;;;;;;;1.65;1.10;;;;;;;14.93;100.00;95633.50;5029980;28;24529;-74
2022/06/25 00:57:35;;;;;;;3.17;1.40;;;;;;;14.95;100.00;95634.22;5034557;28;24435;-74
2022/06/25 01:00:05;;;;;;;1.57;0.80;;;;;;;14.83;100.00;95636.97;5036961;28;24452;-72
2022/06/25 01:02:33;;;;;;;2.05;0.80;;;;;;;14.82;100.00;95628.34;5040904;28;24431;-74
2022/06/25 01:05:06;;;;;;;2.60;1.05;;;;;;;14.70;100.00;95627.56;5030157;28;24454;-73
2022/06/25 01:07:34;;;;;;;1.77;0.80;;;;;;;14.57;100.00;95628.69;5035955;28;24983;-73
2022/06/25 01:10:01;;;;;;;2.92;1.00;;;;;;;14.61;100.00;95628.31;5039103;28;24569;-73
2022/06/25 01:12:27;;;;;;;1.30;1.08;;;;;;;14.39;100.00;95638.78;5044233;28;24447;-73
2022/06/25 01:15:01;;;;;;;2.05;1.05;;;;;;;14.19;100.00;95641.19;5040702;28;24489;-73
2022/06/25 01:17:29;;;;;;;2.15;0.98;;;;;;;14.21;100.00;95641.09;5034820;28;24435;-73
2022/06/25 01:19:56;;;;;;;1.52;0.75;;;;;;;14.20;100.00;95635.06;5037474;28;25059;-73
2022/06/25 01:22:25;;;;;;;1.35;0.90;;;;;;;14.20;100.00;95635.06;5035509;28;24432;-74
2022/06/25 01:24:51;;;;;;;1.67;1.20;;;;;;;14.26;100.00;95638.94;5031276;28;24439;-74
2022/06/25 01:27:17;;;;;;;1.00;0.90;;;;;;;14.21;100.00;95641.91;5034368;28;25054;-73
2022/06/25 01:29:45;;;;;;;2.67;1.00;;;;;;;14.16;100.00;95638.00;5040075;28;24439;-73
2022/06/25 01:32:11;;;;;;;1.48;1.02;;;;;;;14.20;100.00;95626.38;5041202;28;24538;-73
2022/06/25 01:34:38;;;;;;;1.90;1.00;;;;;;;14.17;100.00;95642.28;5040590;28;25016;-72
2022/06/25 01:37:05;;;;;;;3.28;1.00;;;;;;;14.28;100.00;95637.03;5038787;28;24458;-74
2022/06/25 01:39:33;;;;;;;1.92;1.05;;;;;;;14.37;100.00;95638.06;5030976;28;24868;-74
2022/06/25 01:42:00;;;;;;;0.80;0.70;;;;;;;14.48;100.00;95640.66;5038910;28;25008;-74
2022/06/25 01:44:28;;;;;;;2.40;0.80;;;;;;;14.52;100.00;95639.47;5035657;28;24464;-73
2022/06/25 01:46:55;;;;;;;1.08;0.80;;;;;;;14.62;100.00;95642.19;5033564;28;25011;-73
2022/06/25 01:49:21;;;;;;;1.35;0.98;;;;;;;14.58;100.00;95636.38;5030800;28;24432;-73
2022/06/25 01:51:48;;;;;;;2.65;1.20;;;;;;;14.56;100.00;95647.88;5035291;28;24508;-73
2022/06/25 01:54:15;;;;;;;1.90;0.85;;;;;;;14.56;100.00;95643.50;5036546;28;24452;-73
2022/06/25 01:56:43;;;;;;;1.30;0.70;;;;;;;14.62;100.00;95650.00;5039404;28;24854;-73
2022/06/25 01:59:09;;;;;;;1.05;0.80;;;;;;;14.61;100.00;95643.97;5032883;28;24845;-73
2022/06/25 02:01:36;;;;;;;1.88;0.93;;;;;;;14.59;100.00;95642.44;5037216;28;24497;-72
2022/06/25 02:04:03;;;;;;;1.17;0.77;;;;;;;14.65;100.00;95642.75;5036627;28;24794;-73
2022/06/25 02:06:29;;;;;;;1.90;0.80;;;;;;;14.49;100.00;95650.97;5034921;28;24444;-74
2022/06/25 02:08:56;;;;;;;1.60;0.97;;;;;;;14.47;100.00;95647.66;5043301;28;24490;-72
2022/06/25 02:11:24;;;;;;;1.80;1.20;;;;;;;14.53;100.00;95638.53;5039709;28;24806;-73
2022/06/25 02:13:51;;;;;;;3.30;1.10;;;;;;;14.58;100.00;95643.38;5034242;28;24502;-73
2022/06/25 02:16:20;;;;;;;2.95;0.98;;;;;;;14.61;100.00;95641.34;5046778;28;24455;-73
2022/06/25 02:18:46;;;;;;;2.33;1.05;;;;;;;14.38;100.00;95650.97;5036344;28;24469;-73
2022/06/25 02:21:13;;;;;;;1.25;0.88;;;;;;;14.09;100.00;95658.50;5042828;28;25353;-74
2022/06/25 02:23:40;;;;;;;1.25;0.90;;;;;;;14.00;100.00;95661.81;5041004;28;24432;-73
2022/06/25 02:26:07;;;;;;;3.67;0.80;;;;;;;13.82;100.00;95665.84;5042191;28;24490;-73
2022/06/25 02:28:33;;;;;;;2.20;1.20;;;;;;;13.70;100.00;95670.22;5036790;28;24574;-74
2022/06/25 02:31:01;;;;;;;1.80;0.83;;;;;;;13.52;100.00;95675.88;5045192;28;24443;-73
2022/06/25 02:33:28;;;;;;;1.80;1.00;;;;;;;13.38;100.00;95667.47;5040384;28;25004;-73
2022/06/25 02:35:54;;;;;;;2.20;1.00;;;;;;;13.29;100.00;95666.41;5038007;28;24440;-73
2022/06/25 02:38:21;;;;;;;2.30;0.90;;;;;;;13.29;100.00;95671.59;5036385;28;24513;-73
2022/06/25 02:40:47;;;;;;;2.08;1.05;;;;;;;13.25;100.00;95665.78;5043075;28;24538;-73
2022/06/25 02:43:14;;;;;;;0.90;0.80;;;;;;;13.25;100.00;95668.41;5036608;28;25019;-73
2022/06/25 02:45:40;;;;;;;1.40;0.90;;;;;;;13.26;100.00;95664.84;5041293;28;24432;-72
2022/06/25 02:48:08;;;;;;;1.98;1.00;;;;;;;13.31;100.00;95664.50;5041380;28;25168;-73
2022/06/25 02:50:35;;;;;;;2.50;1.15;;;;;;;13.41;100.00;95667.25;5039262;28;24607;-74
2022/06/25 02:53:02;;;;;;;1.92;0.90;;;;;;;13.45;100.00;95676.47;5045252;28;24856;-73
2022/06/25 03:00:53;;;;;;;1.98;0.90;;;;;;;13.54;100.00;95668.81;5039009;28;24450;-74
2022/06/25 03:03:21;;;;;;;2.00;0.93;;;;;;;13.45;100.00;95677.28;5037165;28;24427;-72
2022/06/25 03:05:48;;;;;;;1.35;0.90;;;;;;;13.50;100.00;95669.97;5037094;28;24995;-73
2022/06/25 03:08:14;;;;;;;1.83;1.17;;;;;;;13.51;100.00;95670.81;5044319;28;24435;-74
2022/06/25 03:10:41;;;;;;;2.90;1.10;;;;;;;13.55;100.00;95669.63;5039808;28;24996;-73
2022/06/25 03:13:07;;;;;;;2.75;0.80;;;;;;;13.61;100.00;95668.31;5042386;28;24447;-73
2022/06/25 03:15:35;;;;;;;1.17;0.75;;;;;;;13.68;100.00;95667.75;5045328;28;24435;-73
2022/06/25 03:18:01;;;;;;;1.67;1.05;;;;;;;13.58;100.00;95665.97;5032947;28;24833;-73
2022/06/25 03:20:29;;;;;;;2.92;1.33;;;;;;;13.50;100.00;95662.19;5042534;28;24616;-73
2022/06/25 03:22:56;;;;;;;1.48;0.93;;;;;;;13.60;100.00;95654.47;5042214;28;24519;-73
2022/06/25 03:25:23;;;;;;;2.95;1.10;;;;;;;13.58;100.00;95664.19;5041991;28;24435;-73
2022/06/25 03:27:49;;;;;;;2.47;0.88;;;;;;;13.71;100.00;95667.50;5040536;28;24523;-73
2022/06/25 03:30:17;;;;;;;3.88;1.08;;;;;;;13.81;100.00;95665.03;5041543;28;24439;-73
2022/06/25 03:32:43;;;;;;;1.02;0.75;;;;;;;13.90;100.00;95668.69;5035096;28;24546;-73
2022/06/25 03:35:09;;;;;;;1.63;0.82;;;;;;;13.96;100.00;95668.22;5038879;28;25015;-73
2022/06/25 03:37:37;;;;;;;1.50;0.90;;;;;;;13.99;100.00;95670.59;5040906;28;24995;-72
2022/06/25 03:40:04;;;;;;;1.83;1.10;;;;;;;13.98;100.00;95661.13;5040331;28;24984;-72
2022/06/25 03:42:31;;;;;;;1.70;0.82;;;;;;;13.97;100.00;95655.06;5032714;28;25024;-73
2022/06/25 03:44:57;;;;;;;2.58;0.90;;;;;;;14.03;100.00;95665.00;5039192;28;24999;-73
2022/06/25 03:47:24;;;;;;;1.40;0.85;;;;;;;13.98;100.00;95658.53;5036883;28;24436;-73
2022/06/25 03:49:50;;;;;;;1.60;1.10;;;;;;;13.94;100.00;95664.88;5039099;28;24443;-73
2022/06/25 03:52:17;;;;;;;2.10;1.10;;;;;;;13.85;100.00;95666.44;5039186;28;24431;-72
2022/06/25 03:54:44;;;;;;;1.57;1.10;;;;;;;13.78;100.00;95668.69;5041971;28;24455;-72
2022/06/25 03:57:11;;;;;;;2.43;1.10;;;;;;;13.68;100.00;95672.97;5036290;28;24443;-74
2022/06/25 03:59:37;;;;;;;3.00;1.20;;;;;;;13.61;100.00;95687.38;5043373;28;24440;-73
2022/06/25 04:02:04;;;;;;;1.75;0.80;;;;;;;13.62;100.00;95677.81;5037632;28;24490;-73
2022/06/25 04:04:30;;;;;;;2.15;1.10;;;;;;;13.55;100.00;95675.66;5031418;28;24435;-74
2022/06/25 04:06:57;;;;;;;0.95;0.80;;;;;;;13.53;100.00;95676.72;5037003;28;24427;-73
2022/06/25 04:09:23;;;;;;;1.50;0.77;;;;;;;13.62;100.00;95686.44;5032358;28;25099;-72
2022/06/25 04:11:51;;;;;;;1.55;0.90;;;;;;;13.60;100.00;95683.09;5040290;28;24436;-73
2022/06/25 04:14:18;;;;;;;1.63;1.00;;;;;;;13.64;100.00;95681.91;5043359;28;25046;-73
2022/06/25 04:16:44;;;;;;;1.10;0.70;;;;;;;13.70;100.00;95685.84;5039186;28;24443;-73
2022/06/25 04:19:10;;;;;;;1.30;0.80;;;;;;;13.74;100.00;95690.69;5035822;28;24435;-72
2022/06/25 04:21:37;;;;;;;1.25;0.82;;;;;;;13.86;100.00;95698.50;5038017;28;24443;-73
2022/06/25 04:24:04;;;;;;;1.63;1.03;;;;;;;13.93;100.00;95697.09;5034236;28;24538;-73
2022/06/25 04:26:30;;;;;;;1.00;0.90;;;;;;;13.99;100.00;95699.22;5033951;28;25002;-73
2022/06/25 04:29:03;;;;;;;1.97;1.03;;;;;;;13.92;100.00;95701.47;5044184;28;24513;-73
2022/06/25 04:31:29;;;;;;;1.50;1.08;;;;;;;13.63;100.00;95705.47;5038509;28;25012;-72
2022/06/25 04:33:56;;;;;;;1.77;1.13;;;;;;;13.43;100.00;95701.78;5040351;28;24502;-73
2022/06/25 04:36:23;;;;;;;1.87;0.97;;;;;;;13.54;100.00;95712.22;5036867;28;24485;-73
2022/06/25 04:38:50;;;;;;;1.45;0.80;;;;;;;13.56;100.00;95708.53;5046365;28;24489;-72
2022/06/25 04:41:17;;;;;;;1.25;0.85;;;;;;;13.74;100.00;95710.69;5038737;28;24471;-73
2022/06/25 04:43:43;;;;;;;2.60;1.23;;;;;;;13.70;100.00;95710.09;5042446;28;25050;-73
2022/06/25 04:46:11;;;;;;;1.23;0.77;;;;;;;13.78;100.00;95715.53;5036231;28;24846;-73
2022/06/25 04:48:39;;;;;;;2.33;1.05;;;;;;;13.96;100.00;95712.47;5031510;28;24438;-74
2022/06/25 04:51:05;;;;;;;4.50;1.20;;;;;;;13.98;100.00;95713.19;5039943;28;25008;-73
2022/06/25 04:53:32;;;;;;;2.40;1.00;;;;;;;13.99;100.00;95713.06;5036064;28;24818;-72
2022/06/25 04:55:59;;;;;;;1.70;0.90;;;;;;;14.03;100.00;95711.06;5041166;28;25158;-74
2022/06/25 04:58:25;;;;;;;2.07;0.80;;;;;;;14.09;100.00;95710.59;5041654;28;24493;-73
2022/06/25 05:00:51;;;;;;;1.08;0.88;;;;;;;14.20;100.00;95707.97;5039937;28;24443;-73
2022/06/25 05:03:19;;;;;;;1.80;0.80;;;;;;;14.27;100.00;95700.50;5036826;28;25117;-73
2022/06/25 05:05:46;;;;;;;1.20;0.82;;;;;;;14.37;100.00;95703.22;5037794;28;25034;-74
2022/06/25 05:08:12;;;;;;;2.55;0.70;;;;;;;14.36;100.00;95702.38;5042351;28;24439;-74
2022/06/25 05:10:38;;;;;;;4.17;0.97;;;;;;;14.29;100.00;95709.03;5039979;28;24493;-73
2022/06/25 05:13:14;;;;;;;1.90;1.00;;;;;;;14.33;100.00;95715.66;5039450;28;24435;-73
2022/06/25 05:15:42;;;;;;;1.80;0.85;;;;;;;14.23;100.00;95715.53;5029534;28;24531;-73
2022/06/25 05:18:10;;;;;;;1.67;0.95;;;;;;;14.24;100.00;95712.00;5034387;28;24547;-74
2022/06/25 05:20:39;;;;;;;1.42;0.80;;;;;;;14.41;100.00;95713.25;5036446;28;24553;-72
2022/06/25 05:23:05;;;;;;;3.50;1.10;;;;;;;14.50;100.00;95714.38;5041385;28;24523;-73
2022/06/25 05:25:32;;;;;;;1.20;0.83;;;;;;;14.67;100.00;95711.22;5037205;28;24988;-73
2022/06/25 05:27:58;;;;;;;5.32;1.10;;;;;;;14.94;100.00;95709.94;5035884;28;24443;-73
2022/06/25 05:30:26;;;;;;;1.60;0.93;;;;;;;14.91;100.00;95718.88;5042433;28;24498;-73
2022/06/25 05:32:52;;;;;;;2.58;1.05;;;;;;;14.82;100.00;95723.97;5034797;28;24447;-73
2022/06/25 05:35:18;;;;;;;5.37;1.07;;;;;;;14.87;100.00;95722.69;5044149;28;24495;-74
2022/06/25 05:37:46;;;;;;;2.78;1.13;;;;;;;15.04;100.00;95733.50;5037912;28;24992;-78
2022/06/25 05:40:13;;;;;;;2.37;1.10;;;;;;;15.06;100.00;95735.06;5045269;28;24530;-75
2022/06/25 05:42:39;;;;;;;1.90;0.88;;;;;;;15.00;100.00;95738.16;5040137;28;24447;-75
2022/06/25 05:45:07;;;;;;;1.00;0.90;;;;;;;15.13;100.00;95735.34;5041798;28;24440;-75
2022/06/25 05:47:34;;;;;;;2.55;1.13;;;;;;;15.30;100.00;95739.22;5035975;28;24447;-75
2022/06/25 05:50:00;;;;;;;2.58;1.10;;;;;;;15.41;100.00;95733.94;5049684;28;24428;-75
2022/06/25 05:52:27;;;;;;;2.20;1.00;;;;;;;15.51;100.00;95734.84;5041602;28;24439;-74
2022/06/25 05:54:55;;;;;;;5.97;1.27;;;;;;;15.58;100.00;95738.59;5049605;28;24550;-75
2022/06/25 05:57:21;;;;;;;3.70;1.20;;;;;;;15.64;100.00;95742.47;5035779;28;24458;-76
2022/06/25 05:59:48;;;;;;;2.40;0.90;;;;;;;15.63;100.00;95740.81;5047402;28;24486;-76
2022/06/25 06:02:14;;;;;;;1.60;1.00;;;;;;;15.67;100.00;95747.47;5044690;28;24446;-74
2022/06/25 06:04:41;;;;;;;4.65;1.50;;;;;;;15.74;100.00;95751.22;5045567;28;24439;-73
2022/06/25 06:07:07;;;;;;;3.10;0.77;;;;;;;15.73;100.00;95746.97;5034750;28;24444;-76
2022/06/25 06:09:34;;;;;;;3.75;1.23;;;;;;;15.75;100.00;95744.22;5045235;28;24439;-76
2022/06/25 06:12:01;;;;;;;1.75;1.02;;;;;;;15.86;100.00;95750.19;5044900;28;24443;-74
2022/06/25 06:14:28;;;;;;;2.63;1.00;;;;;;;15.92;100.00;95749.69;5045026;28;24517;-76
2022/06/25 06:16:56;;;;;;;1.30;0.60;;;;;;;15.97;100.00;95750.09;5044129;28;24509;-75
2022/06/25 06:19:22;;;;;;;1.52;0.70;;;;;;;16.26;100.00;95754.66;5044435;28;24987;-75
2022/06/25 06:21:49;;;;;;;2.28;1.00;;;;;;;16.33;100.00;95754.94;5035295;28;24543;-75
2022/06/25 06:24:15;;;;;;;1.80;0.90;;;;;;;16.60;100.00;95752.56;5044168;28;25100;-75
2022/06/25 06:26:42;;;;;;;1.55;0.90;;;;;;;16.54;100.00;95760.09;5043095;28;24440;-75
2022/06/25 06:29:10;;;;;;;3.15;0.95;;;;;;;16.76;100.00;95761.69;5040741;28;24439;-75
2022/06/25 06:31:36;;;;;;;1.38;0.82;;;;;;;16.90;100.00;95761.31;5036257;28;24447;-76
2022/06/25 06:34:03;;;;;;;2.90;1.00;;;;;;;16.81;100.00;95764.75;5038834;28;24455;-74
2022/06/25 06:36:29;;;;;;;1.77;0.98;;;;;;;16.93;100.00;95764.50;5037643;28;24783;-75
2022/06/25 06:38:56;;;;;;;14.65;1.13;;;;;;;16.99;100.00;95759.69;5037299;28;24432;-75
2022/06/25 06:41:22;;;;;;;1.27;0.73;;;;;;;17.14;100.00;95755.72;5045034;28;25008;-75
2022/06/25 06:43:49;;;;;;;1.83;1.00;;;;;;;17.28;100.00;95755.31;5039862;28;24466;-74
2022/06/25 06:46:16;;;;;;;2.42;0.93;;;;;;;17.26;100.00;95756.41;5041440;28;25007;-73
2022/06/25 06:48:43;;;;;;;6.30;1.10;;;;;;;17.48;100.00;95757.91;5040788;28;24443;-75
2022/06/25 06:51:09;;;;;;;1.83;0.90;;;;;;;17.46;100.00;95752.81;5042599;28;24442;-75
2022/06/25 06:53:36;;;;;;;2.23;0.90;;;;;;;17.80;100.00;95757.66;5040287;28;24531;-74
2022/06/25 06:56:03;;;;;;;1.48;0.85;;;;;;;17.90;100.00;95750.56;5034452;28;24895;-75
2022/06/25 06:58:30;;;;;;;1.30;0.93;;;;;;;18.25;100.00;95749.91;5033717;28;24436;-76
2022/06/25 07:00:56;;;;;;;2.72;0.95;;;;;;;18.34;100.00;95746.41;5043327;28;24543;-74
2022/06/25 07:03:24;;;;;;;4.50;1.10;;;;;;;18.80;100.00;95746.47;5042012;28;24490;-74
2022/06/25 07:05:51;;;;;;;5.93;0.73;;;;;;;19.19;100.00;95748.88;5032287;28;24431;-74
2022/06/25 07:08:17;;;;;;;2.78;1.05;;;;;;;18.93;100.00;95752.22;5035477;28;24439;-74
2022/06/25 07:10:44;;;;;;;3.22;1.02;;;;;;;19.01;100.00;95744.41;5040496;28;24450;-74
2022/06/25 07:13:10;;;;;;;1.10;0.68;;;;;;;18.84;100.00;95746.06;5036912;28;25015;-75
2022/06/25 07:15:37;;;;;;;2.80;0.90;;;;;;;19.29;100.00;95744.38;5044427;28;25105;-74
2022/06/25 07:18:03;;;;;;;2.40;0.90;;;;;;;19.42;100.00;95749.22;5035569;28;25031;-75
2022/06/25 07:20:31;;;;;;;1.10;0.80;;;;;;;19.40;100.00;95748.56;5048823;28;25048;-75
2022/06/25 07:22:58;;;;;;;1.48;0.77;;;;;;;19.75;100.00;95750.34;5040066;28;24444;-75
2022/06/25 07:25:24;;;;;;;2.90;0.90;;;;;;;20.12;100.00;95754.53;5035313;28;24439;-75
2022/06/25 07:27:51;;;;;;;3.78;0.73;;;;;;;20.10;100.00;95752.06;5043120;28;24462;-75
2022/06/25 07:30:18;;;;;;;1.52;1.10;;;;;;;20.39;100.00;95746.44;5035563;28;24559;-70
2022/06/25 07:32:44;;;;;;;0.60;0.60;;;;;;;20.76;96.85;95738.25;5040297;28;24431;-73
2022/06/25 07:35:11;;;;;;;1.95;0.90;;;;;;;21.30;94.39;95748.41;5031660;28;24451;-74
2022/06/25 07:37:41;;;;;;;1.65;0.93;;;;;;;20.93;93.09;95730.41;5030786;28;24999;-73
2022/06/25 07:40:08;;;;;;;2.35;1.08;;;;;;;21.08;94.83;95728.78;5037477;28;24535;-73
2022/06/25 07:42:35;;;;;;;1.13;0.82;;;;;;;21.28;95.71;95729.28;5039972;28;24427;-74
2022/06/25 07:45:03;;;;;;;1.30;0.87;;;;;;;21.36;89.96;95728.50;5041322;28;24518;-73
2022/06/25 07:47:36;;;;;;;1.48;0.80;;;;;;;21.47;88.54;95728.22;5035241;28;24890;-73
2022/06/25 07:52:48;;;;;;;1.50;1.08;;;;;;;21.17;94.22;95721.69;5033689;28;24428;-74
2022/06/25 07:55:15;;;;;;;2.08;0.77;;;;;;;21.66;88.46;95719.97;5040980;28;24459;-74
2022/06/25 07:57:42;;;;;;;1.90;1.10;;;;;;;22.06;94.66;95715.59;5038954;28;24498;-74
2022/06/25 08:00:11;;;;;;;1.90;1.10;;;;;;;22.29;90.78;95721.03;5037947;28;25020;-74
2022/06/25 08:02:38;;;;;;;2.90;1.23;;;;;;;22.23;88.45;95719.06;5041444;28;24994;-74
2022/06/25 08:05:05;;;;;;;3.45;1.10;;;;;;;22.17;88.50;95722.34;5030163;28;24479;-73
2022/06/25 08:07:31;;;;;;;2.67;1.13;;;;;;;22.28;90.90;95716.72;5040626;28;24454;-73
2022/06/25 08:10:04;;;;;;;2.40;1.10;;;;;;;22.34;88.07;95715.22;5031342;28;24688;-74
2022/06/25 08:12:31;;;;;;;1.53;1.33;;;;;;;22.38;86.01;95719.16;5039972;28;24794;-73
2022/06/25 08:14:57;;;;;;;2.42;1.20;;;;;;;22.59;89.31;95710.69;5034073;28;24451;-73
2022/06/25 08:17:24;;;;;;;2.67;1.08;;;;;;;22.91;85.66;95715.81;5030127;28;24547;-74
2022/06/25 08:19:50;;;;;;;2.05;0.93;;;;;;;23.09;78.17;95717.34;5037319;28;24436;-73
2022/06/25 08:22:17;;;;;;;4.43;1.35;;;;;;;23.14;77.56;95712.38;5037006;28;24435;-74
2022/06/25 08:24:43;;;;;;;3.88;1.30;;;;;;;23.23;80.21;95711.31;5036162;28;25572;-75
2022/06/25 08:27:11;;;;;;;2.17;0.93;;;;;;;23.59;77.33;95716.00;5037454;28;24826;-75
2022/06/25 08:29:37;;;;;;;2.83;1.17;;;;;;;23.57;81.58;95710.06;5035892;28;24821;-74
2022/06/25 08:32:04;;;;;;;3.72;1.25;;;;;;;23.05;78.69;95711.59;5038199;28;24439;-74
2022/06/25 08:34:31;;;;;;;2.92;1.40;;;;;;;22.88;82.48;95712.69;5034992;28;24485;-73
2022/06/25 08:36:57;;;;;;;2.75;1.15;;;;;;;22.91;84.12;95714.94;5037767;28;25017;-74
2022/06/25 08:39:24;;;;;;;3.58;1.05;;;;;;;23.07;80.60;95717.53;5034863;28;24844;-74
2022/06/25 08:41:50;;;;;;;2.00;1.07;;;;;;;23.17;78.36;95709.38;5043516;28;24988;-74
2022/06/25 08:44:18;;;;;;;2.00;1.10;;;;;;;23.03;81.51;95718.06;5041164;28;24794;-74
2022/06/25 08:46:44;;;;;;;2.38;1.20;;;;;;;23.18;81.75;95709.22;5035194;28;24438;-74
2022/06/25 08:49:12;;;;;;;2.17;1.30;;;;;;;23.27;82.87;95709.16;5033814;28;24476;-74
2022/06/25 08:51:39;;;;;;;2.03;1.27;;;;;;;23.14;80.78;95710.56;5038429;28;24865;-74
2022/06/25 08:54:08;;;;;;;4.80;1.20;;;;;;;23.44;81.58;95713.31;5032727;28;24521;-74
2022/06/25 08:56:36;;;;;;;3.20;1.13;;;;;;;23.24;76.15;95718.25;5039175;28;24879;-73
2022/06/25 08:59:02;;;;;;;2.05;1.20;;;;;;;23.18;77.71;95711.84;5029567;28;24981;-73
2022/06/25 09:01:30;;;;;;;3.08;1.40;;;;;;;23.59;83.64;95700.97;5032367;28;24458;-73
2022/06/25 09:03:56;;;;;;;2.25;1.38;;;;;;;23.45;77.28;95711.50;5031643;28;24424;-73
2022/06/25 09:06:23;;;;;;;2.05;1.08;;;;;;;23.07;70.83;95706.97;5034867;28;24435;-73
2022/06/25 09:09:09;;;;;;;2.20;1.25;;;;;;;23.22;74.22;95701.75;5045542;28;24855;-73
2022/06/25 09:11:48;;;;;;;6.85;1.15;;;;;;;23.67;79.27;95700.91;5031761;28;24495;-73
2022/06/25 09:14:23;;;;;;;3.85;1.17;;;;;;;23.80;71.68;95700.28;5034026;28;25011;-73
2022/06/25 09:16:55;;;;;;;2.60;1.00;;;;;;;23.81;70.53;95701.97;5040591;28;24519;-73
2022/06/25 09:19:32;;;;;;;2.45;1.20;;;;;;;24.20;68.22;95703.53;5038154;28;25057;-74
2022/06/25 09:22:00;;;;;;;6.60;1.27;;;;;;;24.49;62.63;95702.72;5041790;28;24435;-73
2022/06/25 09:24:40;;;;;;;3.30;1.10;;;;;;;24.63;66.28;95701.09;5037720;28;24526;-74
2022/06/25 09:27:06;;;;;;;7.22;1.13;;;;;;;24.24;66.86;95702.16;5041366;28;24435;-73
2022/06/25 09:29:42;;;;;;;2.72;0.95;;;;;;;24.05;68.16;95700.88;5037300;28;24462;-74
2022/06/25 09:32:11;;;;;;;2.90;1.23;;;;;;;23.80;68.04;95700.28;5040153;28;24436;-74
2022/06/25 09:34:39;;;;;;;7.72;1.25;;;;;;;23.96;72.28;95695.88;5037273;28;24436;-73
2022/06/25 09:37:20;;;;;;;3.25;0.88;;;;;;;23.57;72.04;95691.56;5041136;28;25004;-73
2022/06/25 09:39:47;;;;;;;4.13;1.25;;;;;;;23.70;71.59;95686.53;5037455;28;24988;-74
2022/06/25 09:42:25;;;;;;;4.20;0.95;;;;;;;23.64;63.08;95689.84;5044699;28;24510;-74
2022/06/25 09:45:00;;;;;;;1.80;0.88;;;;;;;23.53;65.36;95692.91;5038211;28;24523;-73
2022/06/25 09:47:28;;;;;;;3.45;0.95;;;;;;;24.03;69.60;95691.47;5038371;28;24446;-73
2022/06/25 09:50:07;;;;;;;2.53;1.13;;;;;;;23.72;70.55;95688.97;5041122;28;24793;-75
2022/06/25 09:52:35;;;;;;;1.80;1.10;;;;;;;23.31;65.98;95692.75;5035377;28;24486;-74
2022/06/25 09:55:01;;;;;;;4.95;0.98;;;;;;;22.88;65.40;95688.91;5038310;28;24448;-73
2022/06/25 09:57:28;;;;;;;1.75;0.85;;;;;;;22.87;65.38;95680.16;5044152;28;24485;-74
2022/06/25 09:59:59;;;;;;;2.17;1.02;;;;;;;23.46;67.96;95687.53;5034841;28;24995;-74
2022/06/25 10:02:29;;;;;;;1.40;0.90;;;;;;;23.42;77.99;95679.13;5044302;28;25177;-74
2022/06/25 10:05:01;;;;;;;2.40;1.10;;;;;;;23.70;71.86;95672.50;5034944;28;24532;-74
2022/06/25 10:07:59;;;;;;;2.00;1.00;;;;;;;23.45;70.48;95670.03;5044148;28;24845;-73
2022/06/25 10:10:19;;;;;;;2.45;0.90;;;;;;;23.60;67.76;95676.16;5036953;28;24416;-73
2022/06/25 10:12:46;;;;;;;6.60;1.10;;;;;;;23.08;65.12;95676.09;5046601;28;24526;-73
2022/06/25 10:15:15;;;;;;;2.30;1.15;;;;;;;23.35;68.94;95678.19;5032958;28;24456;-75
2022/06/25 10:17:44;;;;;;;4.53;1.30;;;;;;;23.65;71.03;95675.63;5041634;28;24432;-77
2022/06/25 10:20:11;;;;;;;3.80;1.30;;;;;;;23.82;66.07;95665.75;5042477;28;24490;-73
2022/06/25 10:22:38;;;;;;;1.77;1.23;;;;;;;23.59;68.29;95669.25;5035360;28;25007;-73
2022/06/25 10:25:10;;;;;;;3.67;1.10;;;;;;;23.15;72.51;95674.41;5046523;28;24436;-73
2022/06/25 10:27:39;;;;;;;2.72;1.10;;;;;;;22.63;71.72;95661.81;5035602;28;24790;-73
2022/06/25 10:30:06;;;;;;;2.92;1.33;;;;;;;23.02;71.08;95661.75;5040635;28;24443;-74
2022/06/25 10:32:34;;;;;;;2.75;1.10;;;;;;;23.13;66.83;95664.00;5032477;28;24881;-73
2022/06/25 10:35:02;;;;;;;2.25;1.25;;;;;;;23.33;69.29;95667.00;5045835;28;24455;-74
2022/06/25 10:37:49;;;;;;;2.20;1.13;;;;;;;23.85;65.05;95665.41;5043713;28;24484;-73
2022/06/25 10:40:18;;;;;;;1.30;1.02;;;;;;;24.28;60.37;95671.69;5032055;28;24450;-73
2022/06/25 10:42:58;;;;;;;1.75;1.10;;;;;;;24.32;68.79;95654.41;5045998;28;24465;-74
2022/06/25 10:45:55;;;;;;;2.30;0.90;;;;;;;24.45;64.57;95653.00;5046351;28;24423;-74
2022/06/25 10:48:25;;;;;;;2.97;1.10;;;;;;;24.22;58.57;95661.84;5034487;28;24527;-73
2022/06/25 10:50:55;;;;;;;1.77;1.15;;;;;;;23.82;60.11;95655.16;5048267;28;24431;-73
2022/06/25 10:53:26;;;;;;;2.58;1.10;;;;;;;23.78;62.08;95660.00;5043554;28;24443;-73
2022/06/25 10:56:16;;;;;;;5.80;1.20;;;;;;;24.25;60.76;95650.91;5043038;28;24456;-73
2022/06/25 10:58:46;;;;;;;2.80;1.10;;;;;;;24.70;64.64;95640.25;5040423;28;24435;-74
2022/06/25 11:01:28;;;;;;;1.77;1.00;;;;;;;24.47;58.54;95632.44;5035976;28;25040;-73
2022/06/25 11:03:57;;;;;;;1.05;0.75;;;;;;;24.17;62.86;95634.28;5040112;28;24523;-74
2022/06/25 11:06:29;;;;;;;3.35;1.10;;;;;;;24.23;62.86;95633.56;5036659;28;24441;-74
2022/06/25 11:08:56;;;;;;;2.45;1.00;;;;;;;24.54;63.00;95634.16;5040036;28;24431;-74
2022/06/25 11:11:25;;;;;;;1.83;1.30;;;;;;;24.93;66.35;95627.66;5036264;28;24879;-73
2022/06/25 11:13:51;;;;;;;1.73;1.00;;;;;;;24.87;60.50;95623.91;5041420;28;24447;-73
2022/06/25 11:16:18;;;;;;;1.40;0.80;;;;;;;24.84;58.03;95628.78;5043079;28;24459;-74
2022/06/25 11:18:50;;;;;;;1.77;0.90;;;;;;;25.12;57.79;95623.59;5040553;28;24440;-73
2022/06/25 11:21:35;;;;;;;1.48;0.95;;;;;;;25.28;nan;95627.78;5045986;28;24494;-74
2022/06/25 11:24:06;;;;;;;2.28;0.80;;;;;;;25.48;59.38;95617.38;5039412;28;24965;-74
2022/06/25 11:29:20;;;;;;;1.42;0.80;;;;;;;25.35;59.41;95626.00;5037928;28;24493;-73
2022/06/25 11:31:47;;;;;;;1.60;1.05;;;;;;;25.85;60.01;95628.66;5041819;28;24439;-73
2022/06/25 11:34:18;;;;;;;1.50;0.80;;;;;;;25.99;59.98;95617.09;5045515;28;24432;-74
2022/06/25 11:36:46;;;;;;;1.90;1.10;;;;;;;26.02;57.35;95617.53;5035475;28;24451;-74
2022/06/25 11:39:15;;;;;;;1.13;0.68;;;;;;;25.76;62.29;95620.00;5037500;28;24996;-74
2022/06/25 11:41:42;;;;;;;2.28;0.98;;;;;;;25.80;52.82;95624.75;5032553;28;24510;-74
2022/06/25 11:44:09;;;;;;;4.10;1.10;;;;;;;25.56;53.78;95623.34;5039017;28;24459;-73